createdAt,value
2023-03-16T00:03:47.788Z,3.47
2023-03-16T00:08:49.771Z,3.65
2023-03-16T00:13:52.269Z,3.85
2023-03-16T00:18:54.065Z,3.70
2023-03-16T00:23:56.314Z,3.83
2023-03-16T00:28:58.083Z,3.45
2023-03-16T00:33:59.786Z,3.33
2023-03-16T00:39:02.310Z,3.34
2023-03-16T00:44:05.638Z,3.17
2023-03-16T00:49:07.397Z,3.43
2023-03-16T00:54:09.119Z,3.73
2023-03-16T00:59:12.994Z,3.73
2023-03-16T01:04:14.880Z,2.93
2023-03-16T01:09:16.690Z,3.44
2023-03-16T01:14:19.774Z,1.49
2023-03-16T01:19:22.828Z,3.10
2023-03-16T01:24:24.571Z,3.48
2023-03-16T01:29:26.602Z,3.27
2023-03-16T01:34:32.043Z,3.57
2023-03-16T01:39:34.461Z,3.55
2023-03-16T01:44:57.853Z,3.63
2023-03-16T01:50:06.589Z,3.10
2023-03-16T01:55:15.895Z,3.33
2023-03-16T02:00:21.733Z,2.83
2023-03-16T02:05:59.943Z,3.19
2023-03-16T02:11:04.802Z,3.54
2023-03-16T02:16:27.105Z,3.31
2023-03-16T02:21:39.059Z,2.79
2023-03-16T02:26:57.612Z,3.07
2023-03-16T02:32:02.948Z,3.13
2023-03-16T02:37:06.381Z,3.45
2023-03-16T02:42:14.054Z,3.22
2023-03-16T02:47:27.083Z,3.10
2023-03-16T02:52:29.000Z,2.43
2023-03-16T02:57:31.730Z,3.43
2023-03-16T03:02:38.339Z,3.28
2023-03-16T03:07:40.252Z,2.52
2023-03-16T03:12:43.127Z,2.40
2023-03-16T03:17:45.849Z,2.62
2023-03-16T03:22:50.306Z,2.67
2023-03-16T03:27:54.477Z,2.83
2023-03-16T03:32:57.250Z,2.93
2023-03-16T03:37:59.392Z,2.84
2023-03-16T03:43:01.784Z,1.14
2023-03-16T03:48:05.601Z,1.65
2023-03-16T03:53:08.662Z,1.70
2023-03-16T03:58:22.652Z,1.64
2023-03-16T04:03:24.691Z,1.74
2023-03-16T04:08:26.579Z,2.22
2023-03-16T04:13:28.823Z,2.52
2023-03-16T04:18:38.539Z,2.67
2023-03-16T04:23:42.494Z,2.73
2023-03-16T04:28:44.503Z,2.95
2023-03-16T04:33:50.667Z,2.85
2023-03-16T04:38:52.956Z,2.83
2023-03-16T04:43:54.773Z,2.73
2023-03-16T04:48:59.308Z,3.08
2023-03-16T04:54:03.750Z,3.02
2023-03-16T04:59:10.699Z,2.82
2023-03-16T05:04:22.034Z,2.15
2023-03-16T05:09:23.935Z,2.48
2023-03-16T05:14:26.075Z,1.18
2023-03-16T05:19:40.725Z,1.93
2023-03-16T05:24:42.845Z,1.03
2023-03-16T05:29:46.212Z,2.58
2023-03-16T05:34:48.653Z,2.49
2023-03-16T05:39:50.802Z,2.28
2023-03-16T05:44:53.804Z,2.53
2023-03-16T05:50:05.149Z,2.99
2023-03-16T05:55:14.609Z,3.12
2023-03-16T06:00:19.744Z,3.23
2023-03-16T06:05:30.349Z,3.00
2023-03-16T06:10:32.360Z,3.16
2023-03-16T06:15:34.188Z,2.69
2023-03-16T06:20:38.135Z,2.15
2023-03-16T06:25:40.977Z,2.59
2023-03-16T06:30:44.435Z,2.67
2023-03-16T06:35:48.215Z,1.61
2023-03-16T06:41:02.516Z,2.49
2023-03-16T06:46:06.765Z,2.35
2023-03-16T06:51:08.771Z,2.46
2023-03-16T06:56:11.924Z,3.02
2023-03-16T07:01:16.649Z,3.92
2023-03-16T07:06:18.546Z,3.38
2023-03-16T07:11:20.340Z,3.31
2023-03-16T07:16:22.129Z,3.99
2023-03-16T07:21:24.350Z,4.39
2023-03-16T07:26:26.675Z,3.52
2023-03-16T07:31:34.522Z,3.44
2023-03-16T07:36:39.830Z,2.55
2023-03-16T07:41:41.740Z,1.93
2023-03-16T07:46:51.518Z,2.13
2023-03-16T07:51:55.115Z,2.87
2023-03-16T07:57:02.964Z,3.24
2023-03-16T08:02:18.683Z,2.73
2023-03-16T08:07:20.804Z,2.98
2023-03-16T08:12:48.864Z,2.98
2023-03-16T08:17:52.338Z,-1.28
2023-03-16T08:22:59.065Z,0.05
2023-03-16T08:28:05.955Z,3.23
2023-03-16T08:33:08.187Z,3.78
2023-03-16T08:38:12.273Z,3.27
2023-03-16T08:43:19.086Z,2.23
2023-03-16T08:48:22.155Z,-1.80
2023-03-16T08:53:25.815Z,-2.33
2023-03-16T08:58:27.620Z,-3.54
2023-03-16T09:03:30.878Z,-0.94
2023-03-16T09:08:32.990Z,3.22
2023-03-16T09:13:36.122Z,2.95
2023-03-16T09:18:37.896Z,-0.58
2023-03-16T09:23:42.681Z,-0.82
2023-03-16T09:28:44.542Z,-0.03
2023-03-16T09:33:47.190Z,-0.48
2023-03-16T09:38:48.894Z,3.46
2023-03-16T09:44:12.198Z,0.68
2023-03-16T09:49:19.807Z,-0.35
2023-03-16T09:54:50.746Z,1.01
2023-03-16T09:59:53.183Z,0.28
2023-03-16T10:04:57.794Z,0.25
2023-03-16T10:10:18.363Z,0.83
2023-03-16T10:15:29.094Z,1.06
2023-03-16T10:20:33.837Z,1.20
2023-03-16T10:25:44.531Z,-0.15
2023-03-16T10:30:49.494Z,0.48
2023-03-16T10:36:13.267Z,0.43
2023-03-16T10:41:18.209Z,-0.11
2023-03-16T10:46:20.119Z,1.15
2023-03-16T10:51:26.883Z,4.68
2023-03-16T10:56:35.372Z,1.14
2023-03-16T11:01:37.559Z,4.25
2023-03-16T11:06:52.793Z,6.97
2023-03-16T11:11:54.748Z,8.38
2023-03-16T11:17:19.125Z,5.94
2023-03-16T11:22:25.362Z,4.41
2023-03-16T11:27:37.596Z,1.46
2023-03-16T11:32:43.326Z,3.83
2023-03-16T11:38:02.333Z,2.37
2023-03-16T11:43:12.303Z,6.89
2023-03-16T11:48:39.091Z,7.13
2023-03-16T11:53:52.492Z,3.55
2023-03-16T11:59:00.696Z,6.19
2023-03-16T12:04:18.277Z,8.28
2023-03-16T12:09:51.476Z,5.90
2023-03-16T12:15:06.345Z,4.93
2023-03-16T12:20:31.761Z,5.80
2023-03-16T12:25:39.526Z,9.14
2023-03-16T12:30:50.525Z,9.66
2023-03-16T12:36:24.451Z,6.66
2023-03-16T12:41:52.842Z,9.29
2023-03-16T12:47:06.993Z,12.05
2023-03-16T12:52:12.574Z,4.65
2023-03-16T12:57:17.065Z,4.82
2023-03-16T13:02:25.007Z,7.07
2023-03-16T13:07:31.193Z,5.41
2023-03-16T13:12:37.160Z,8.12
2023-03-16T13:17:39.289Z,9.25
2023-03-16T13:22:43.933Z,6.29
2023-03-16T13:27:52.483Z,7.03
2023-03-16T13:32:56.631Z,6.57
2023-03-16T13:38:06.599Z,6.97
2023-03-16T13:43:15.621Z,8.17
2023-03-16T13:48:20.654Z,6.71
2023-03-16T13:53:31.558Z,6.99
2023-03-16T13:58:37.131Z,10.07
2023-03-16T14:03:42.305Z,10.28
2023-03-16T14:08:50.727Z,7.47
2023-03-16T14:13:54.691Z,9.92
2023-03-16T14:19:19.221Z,9.35
2023-03-16T14:24:30.830Z,6.78
2023-03-16T14:29:33.082Z,11.34
2023-03-16T14:34:39.488Z,10.36
2023-03-16T14:39:41.851Z,8.26
2023-03-16T14:44:44.345Z,8.99
2023-03-16T14:49:48.777Z,12.71
2023-03-16T14:54:52.320Z,11.92
2023-03-16T14:59:54.501Z,7.79
2023-03-16T15:04:57.667Z,10.64
2023-03-16T15:10:16.945Z,12.86
2023-03-16T15:15:22.570Z,9.69
2023-03-16T15:20:35.327Z,9.44
2023-03-16T15:25:39.597Z,8.87
2023-03-16T15:30:43.268Z,10.65
2023-03-16T15:35:47.730Z,9.03
2023-03-16T15:40:51.317Z,9.21
2023-03-16T15:45:54.164Z,10.11
2023-03-16T15:51:12.355Z,10.39
2023-03-16T15:56:18.499Z,10.94
2023-03-16T16:01:24.195Z,12.26
2023-03-16T16:06:27.491Z,11.38
2023-03-16T16:11:29.503Z,8.41
2023-03-16T16:16:33.645Z,10.62
2023-03-16T16:21:35.739Z,11.80
2023-03-16T16:26:52.917Z,9.41
2023-03-16T16:31:56.481Z,9.81
2023-03-16T16:36:58.474Z,7.76
2023-03-16T16:42:00.884Z,7.78
2023-03-16T16:47:03.856Z,8.76
2023-03-16T16:52:06.517Z,11.83
2023-03-16T16:57:17.085Z,14.04
2023-03-16T17:02:40.945Z,15.29
2023-03-16T17:07:43.688Z,14.04
2023-03-16T17:12:45.966Z,12.18
2023-03-16T17:17:47.976Z,14.27
2023-03-16T17:22:51.403Z,14.97
2023-03-16T17:27:56.573Z,15.47
2023-03-16T17:33:11.084Z,15.97
2023-03-16T17:38:21.946Z,15.44
2023-03-16T17:43:24.283Z,14.89
2023-03-16T17:48:26.063Z,13.06
2023-03-16T17:53:27.874Z,13.44
2023-03-16T17:58:31.373Z,11.99
2023-03-16T18:03:33.333Z,11.69
2023-03-16T18:08:36.051Z,12.17
2023-03-16T18:13:40.444Z,11.29
2023-03-16T18:18:42.846Z,9.37
2023-03-16T18:23:44.697Z,9.94
2023-03-16T18:28:46.715Z,9.92
2023-03-16T18:33:51.232Z,9.00
2023-03-16T18:38:55.238Z,8.03
2023-03-16T18:43:59.730Z,8.33
2023-03-16T18:49:09.540Z,8.16
2023-03-16T18:54:21.962Z,8.27
2023-03-16T18:59:23.888Z,9.33
2023-03-16T19:04:30.717Z,7.58
2023-03-16T19:09:32.820Z,8.75
2023-03-16T19:14:35.167Z,10.07
2023-03-16T19:19:37.150Z,9.08
2023-03-16T19:24:49.052Z,9.40
2023-03-16T19:29:53.008Z,10.02
2023-03-16T19:34:54.892Z,8.37
2023-03-16T19:39:56.872Z,8.54
2023-03-16T19:44:58.773Z,7.66
2023-03-16T19:50:01.760Z,6.38
2023-03-16T19:55:03.771Z,8.58
2023-03-16T20:00:06.607Z,8.60
2023-03-16T20:05:17.061Z,8.58
2023-03-16T20:10:25.388Z,8.66
2023-03-16T20:15:33.579Z,9.28
2023-03-16T20:20:35.912Z,9.45
2023-03-16T20:25:37.900Z,9.21
2023-03-16T20:30:39.735Z,8.77
2023-03-16T20:35:41.573Z,7.91
2023-03-16T20:40:45.335Z,8.89
2023-03-16T20:45:48.461Z,8.99
2023-03-16T20:50:50.339Z,8.00
2023-03-16T20:55:54.505Z,7.74
2023-03-16T21:01:01.888Z,7.70
2023-03-16T21:06:14.505Z,7.60
2023-03-16T21:11:24.178Z,7.01
2023-03-16T21:16:26.742Z,8.14
2023-03-16T21:21:28.637Z,8.87
2023-03-16T21:26:32.940Z,7.88
2023-03-16T21:31:34.990Z,8.96
2023-03-16T21:36:36.807Z,8.49
2023-03-16T21:41:38.727Z,8.58
2023-03-16T21:46:40.609Z,8.64
2023-03-16T21:51:43.216Z,8.51
2023-03-16T21:56:46.494Z,8.31
2023-03-16T22:02:01.072Z,8.35
2023-03-16T22:07:10.301Z,8.30
2023-03-16T22:12:13.973Z,7.57
2023-03-16T22:17:22.167Z,7.73
2023-03-16T22:22:23.995Z,8.29
2023-03-16T22:27:26.328Z,7.92
2023-03-16T22:32:28.109Z,8.07
2023-03-16T22:37:30.379Z,8.12
2023-03-16T22:42:32.275Z,7.11
2023-03-16T22:47:36.798Z,7.30
2023-03-16T22:52:39.215Z,7.27
2023-03-16T22:57:41.122Z,7.69
2023-03-16T23:02:43.376Z,6.96
2023-03-16T23:07:46.642Z,7.90
2023-03-16T23:12:50.142Z,7.64
2023-03-16T23:17:52.261Z,7.89
2023-03-16T23:22:55.130Z,7.64
2023-03-16T23:27:59.123Z,7.89
2023-03-16T23:33:00.992Z,7.87
2023-03-16T23:38:02.998Z,7.04
2023-03-16T23:43:05.383Z,7.25
2023-03-16T23:48:16.862Z,7.71
2023-03-16T23:53:20.051Z,7.14
2023-03-16T23:58:21.939Z,7.32
